sensor_id;sensor_type;location;lat;lon;timestamp;pressure;altitude;pressure_sealevel;temperature;humidity
21730;BME280;11027;51.030;13.812;2024-02-16T00:00:24;100280.78;;;11.09;84.15
21730;BME280;11027;51.030;13.812;2024-02-16T00:02:49;100276.19;;;11.09;83.89
21730;BME280;11027;51.030;13.812;2024-02-16T00:05:14;100277.41;;;11.07;83.94
21730;BME280;11027;51.030;13.812;2024-02-16T00:07:40;100281.16;;;11.06;84.08
21730;BME280;11027;51.030;13.812;2024-02-16T00:10:06;100276.56;;;11.06;84.09
21730;BME280;11027;51.030;13.812;2024-02-16T00:12:33;100267.34;;;11.07;84.00
21730;BME280;11027;51.030;13.812;2024-02-16T00:15:00;100271.94;;;11.07;83.62
21730;BME280;11027;51.030;13.812;2024-02-16T00:17:25;100261.03;;;11.07;83.64
21730;BME280;11027;51.030;13.812;2024-02-16T00:19:54;100260.19;;;11.06;83.59
21730;BME280;11027;51.030;13.812;2024-02-16T00:22:19;100259.34;;;11.06;83.64
21730;BME280;11027;51.030;13.812;2024-02-16T00:24:46;100247.59;;;11.05;83.60
21730;BME280;11027;51.030;13.812;2024-02-16T00:27:11;100249.66;;;11.03;83.67
21730;BME280;11027;51.030;13.812;2024-02-16T00:29:36;100251.34;;;11.04;84.05
21730;BME280;11027;51.030;13.812;2024-02-16T00:32:04;100246.72;;;11.05;83.78
21730;BME280;11027;51.030;13.812;2024-02-16T00:34:29;100242.34;;;11.04;83.94
21730;BME280;11027;51.030;13.812;2024-02-16T00:36:54;100232.25;;;11.04;83.71
21730;BME280;11027;51.030;13.812;2024-02-16T00:39:20;100229.53;;;11.04;84.00
21730;BME280;11027;51.030;13.812;2024-02-16T00:41:46;100228.69;;;11.04;83.83
21730;BME280;11027;51.030;13.812;2024-02-16T00:44:12;100219.84;;;11.01;83.96
21730;BME280;11027;51.030;13.812;2024-02-16T00:46:37;100219.84;;;11.01;84.00
21730;BME280;11027;51.030;13.812;2024-02-16T00:49:03;100220.03;;;11.00;84.19
21730;BME280;11027;51.030;13.812;2024-02-16T00:51:28;100218.16;;;11.00;84.20
21730;BME280;11027;51.030;13.812;2024-02-16T00:53:54;100220.88;;;11.00;84.44
21730;BME280;11027;51.030;13.812;2024-02-16T00:56:19;100214.41;;;11.01;84.57
21730;BME280;11027;51.030;13.812;2024-02-16T00:58:45;100219.84;;;11.01;84.46
21730;BME280;11027;51.030;13.812;2024-02-16T01:01:10;100215.41;;;11.00;84.39
21730;BME280;11027;51.030;13.812;2024-02-16T01:03:38;100213.56;;;11.01;84.19
21730;BME280;11027;51.030;13.812;2024-02-16T01:06:04;100221.91;;;10.99;84.54
21730;BME280;11027;51.030;13.812;2024-02-16T01:08:31;100214.28;;;10.95;84.12
21730;BME280;11027;51.030;13.812;2024-02-16T01:10:56;100212.41;;;10.95;84.58
21730;BME280;11027;51.030;13.812;2024-02-16T01:13:21;100213.41;;;10.94;84.39
21730;BME280;11027;51.030;13.812;2024-02-16T01:15:46;100215.13;;;10.95;84.49
21730;BME280;11027;51.030;13.812;2024-02-16T01:18:12;100206.97;;;10.95;84.58
21730;BME280;11027;51.030;13.812;2024-02-16T01:20:37;100206.97;;;10.95;84.55
21730;BME280;11027;51.030;13.812;2024-02-16T01:23:04;100200.84;;;10.93;84.61
21730;BME280;11027;51.030;13.812;2024-02-16T01:25:30;100208.34;;;10.91;84.96
21730;BME280;11027;51.030;13.812;2024-02-16T01:27:56;100212.97;;;10.91;84.91
21730;BME280;11027;51.030;13.812;2024-02-16T01:30:21;100201.41;;;10.89;84.77
21730;BME280;11027;51.030;13.812;2024-02-16T01:32:47;100207.03;;;10.87;85.11
21730;BME280;11027;51.030;13.812;2024-02-16T01:35:12;100213.69;;;10.85;85.03
21730;BME280;11027;51.030;13.812;2024-02-16T01:37:39;100211.13;;;10.83;85.21
21730;BME280;11027;51.030;13.812;2024-02-16T01:40:06;100206.69;;;10.82;85.37
21730;BME280;11027;51.030;13.812;2024-02-16T01:42:32;100207.75;;;10.81;85.27
21730;BME280;11027;51.030;13.812;2024-02-16T01:44:57;100199.75;;;10.79;85.73
21730;BME280;11027;51.030;13.812;2024-02-16T01:47:22;100208.59;;;10.81;85.48
21730;BME280;11027;51.030;13.812;2024-02-16T01:49:48;100202.28;;;10.81;85.61
21730;BME280;11027;51.030;13.812;2024-02-16T01:52:13;100209.44;;;10.82;85.62
21730;BME280;11027;51.030;13.812;2024-02-16T01:54:39;100208.59;;;10.81;85.83
21730;BME280;11027;51.030;13.812;2024-02-16T01:57:05;100205.69;;;10.83;85.55
21730;BME280;11027;51.030;13.812;2024-02-16T01:59:31;100201.25;;;10.82;85.85
21730;BME280;11027;51.030;13.812;2024-02-16T02:01:58;100201.06;;;10.84;85.71
21730;BME280;11027;51.030;13.812;2024-02-16T02:04:23;100203.63;;;10.85;85.43
21730;BME280;11027;51.030;13.812;2024-02-16T02:06:49;100203.63;;;10.85;85.64
21730;BME280;11027;51.030;13.812;2024-02-16T02:09:14;100199.84;;;10.86;85.77
21730;BME280;11027;51.030;13.812;2024-02-16T02:11:39;100199.84;;;10.86;85.68
21730;BME280;11027;51.030;13.812;2024-02-16T02:14:04;100191.50;;;10.88;85.16
21730;BME280;11027;51.030;13.812;2024-02-16T02:16:30;100181.81;;;10.85;85.58
21730;BME280;11027;51.030;13.812;2024-02-16T02:18:55;100192.06;;;10.83;85.21
21730;BME280;11027;51.030;13.812;2024-02-16T02:21:20;100192.41;;;10.80;85.37
21730;BME280;11027;51.030;13.812;2024-02-16T02:23:45;100198.91;;;10.79;85.55
21730;BME280;11027;51.030;13.812;2024-02-16T02:26:14;100188.34;;;10.76;85.53
21730;BME280;11027;51.030;13.812;2024-02-16T02:28:39;100175.78;;;10.75;85.63
21730;BME280;11027;51.030;13.812;2024-02-16T02:31:04;100180.56;;;10.73;85.48
21730;BME280;11027;51.030;13.812;2024-02-16T02:33:30;100172.38;;;10.73;85.62
21730;BME280;11027;51.030;13.812;2024-02-16T02:35:55;100174.44;;;10.71;85.46
21730;BME280;11027;51.030;13.812;2024-02-16T02:38:20;100178.19;;;10.70;85.36
21730;BME280;11027;51.030;13.812;2024-02-16T02:40:45;100176.50;;;10.69;85.57
21730;BME280;11027;51.030;13.812;2024-02-16T02:43:11;100187.41;;;10.69;85.36
21730;BME280;11027;51.030;13.812;2024-02-16T02:45:36;100179.22;;;10.69;85.33
21730;BME280;11027;51.030;13.812;2024-02-16T02:48:01;100176.50;;;10.69;85.35
21730;BME280;11027;51.030;13.812;2024-02-16T02:50:26;100171.88;;;10.69;85.08
21730;BME280;11027;51.030;13.812;2024-02-16T02:52:52;100169.34;;;10.68;85.10
21730;BME280;11027;51.030;13.812;2024-02-16T02:55:17;100169.34;;;10.68;85.25
21730;BME280;11027;51.030;13.812;2024-02-16T02:57:42;100172.72;;;10.70;85.51
21730;BME280;11027;51.030;13.812;2024-02-16T03:00:08;100166.94;;;10.73;85.10
21730;BME280;11027;51.030;13.812;2024-02-16T03:02:37;100163.16;;;10.74;85.16
21730;BME280;11027;51.030;13.812;2024-02-16T03:05:04;100172.38;;;10.73;84.79
21730;BME280;11027;51.030;13.812;2024-02-16T03:07:30;100174.91;;;10.74;84.69
21730;BME280;11027;51.030;13.812;2024-02-16T03:09:55;100186.28;;;10.78;84.71
21730;BME280;11027;51.030;13.812;2024-02-16T03:12:21;100189.00;;;10.78;84.61
21730;BME280;11027;51.030;13.812;2024-02-16T03:14:47;100197.38;;;10.76;84.73
21730;BME280;11027;51.030;13.812;2024-02-16T03:17:12;100190.06;;;10.77;84.44
21730;BME280;11027;51.030;13.812;2024-02-16T03:19:37;100195.97;;;10.80;84.30
21730;BME280;11027;51.030;13.812;2024-02-16T03:22:03;100195.13;;;10.80;84.25
21730;BME280;11027;51.030;13.812;2024-02-16T03:24:28;100194.63;;;10.76;84.23
21730;BME280;11027;51.030;13.812;2024-02-16T03:26:53;100187.50;;;10.75;84.85
21730;BME280;11027;51.030;13.812;2024-02-16T03:29:19;100185.81;;;10.74;84.31
21730;BME280;11027;51.030;13.812;2024-02-16T03:31:44;100182.22;;;10.74;84.21
21730;BME280;11027;51.030;13.812;2024-02-16T03:34:09;100184.13;;;10.73;84.38
21730;BME280;11027;51.030;13.812;2024-02-16T03:36:35;100183.28;;;10.73;84.15
21730;BME280;11027;51.030;13.812;2024-02-16T03:39:00;100187.03;;;10.72;84.02
21730;BME280;11027;51.030;13.812;2024-02-16T03:41:25;100180.91;;;10.70;84.17
21730;BME280;11027;51.030;13.812;2024-02-16T03:43:51;100180.22;;;10.68;83.91
21730;BME280;11027;51.030;13.812;2024-02-16T03:46:16;100182.28;;;10.66;84.00
21730;BME280;11027;51.030;13.812;2024-02-16T03:48:42;100185.41;;;10.63;83.65
21730;BME280;11027;51.030;13.812;2024-02-16T03:51:07;100193.91;;;10.59;83.88
21730;BME280;11027;51.030;13.812;2024-02-16T03:53:32;100194.28;;;10.56;83.99
21730;BME280;11027;51.030;13.812;2024-02-16T03:55:58;100194.63;;;10.53;83.87
21730;BME280;11027;51.030;13.812;2024-02-16T03:58:24;100191.25;;;10.51;83.86
21730;BME280;11027;51.030;13.812;2024-02-16T04:00:49;100189.91;;;10.47;84.00
21730;BME280;11027;51.030;13.812;2024-02-16T04:03:15;100192.97;;;10.44;84.00
21730;BME280;11027;51.030;13.812;2024-02-16T04:05:40;100196.06;;;10.41;83.72
21730;BME280;11027;51.030;13.812;2024-02-16T04:08:06;100200.00;;;10.38;83.97
21730;BME280;11027;51.030;13.812;2024-02-16T04:10:35;100200.53;;;10.34;84.04
21730;BME280;11027;51.030;13.812;2024-02-16T04:13:00;100192.88;;;10.29;84.36
21730;BME280;11027;51.030;13.812;2024-02-16T04:15:26;100195.75;;;10.28;84.29
21730;BME280;11027;51.030;13.812;2024-02-16T04:17:51;100197.81;;;10.26;84.68
21730;BME280;11027;51.030;13.812;2024-02-16T04:20:17;100196.97;;;10.25;84.44
21730;BME280;11027;51.030;13.812;2024-02-16T04:22:43;100191.69;;;10.24;84.48
21730;BME280;11027;51.030;13.812;2024-02-16T04:25:08;100190.19;;;10.21;84.62
21730;BME280;11027;51.030;13.812;2024-02-16T04:27:34;100190.72;;;10.16;84.48
21730;BME280;11027;51.030;13.812;2024-02-16T04:29:59;100191.75;;;10.15;84.57
21730;BME280;11027;51.030;13.812;2024-02-16T04:32:25;100190.41;;;10.11;84.63
21730;BME280;11027;51.030;13.812;2024-02-16T04:34:51;100190.78;;;10.08;84.78
21730;BME280;11027;51.030;13.812;2024-02-16T04:37:17;100192.81;;;10.06;84.99
21730;BME280;11027;51.030;13.812;2024-02-16T04:39:44;100190.25;;;10.05;84.99
21730;BME280;11027;51.030;13.812;2024-02-16T04:42:09;100192.16;;;10.04;84.94
21730;BME280;11027;51.030;13.812;2024-02-16T04:44:37;100190.44;;;10.03;84.79
21730;BME280;11027;51.030;13.812;2024-02-16T04:47:03;100191.81;;;9.99;84.76
21730;BME280;11027;51.030;13.812;2024-02-16T04:49:29;100190.13;;;9.98;84.72
21730;BME280;11027;51.030;13.812;2024-02-16T04:51:54;100194.69;;;9.97;84.85
21730;BME280;11027;51.030;13.812;2024-02-16T04:54:19;100185.03;;;9.95;85.00
21730;BME280;11027;51.030;13.812;2024-02-16T04:56:44;100193.19;;;9.95;84.73
21730;BME280;11027;51.030;13.812;2024-02-16T04:59:10;100183.34;;;9.94;84.87
21730;BME280;11027;51.030;13.812;2024-02-16T05:01:35;100186.75;;;9.96;84.66
21730;BME280;11027;51.030;13.812;2024-02-16T05:04:00;100187.06;;;9.93;84.72
21730;BME280;11027;51.030;13.812;2024-02-16T05:06:27;100195.25;;;9.93;84.75
21730;BME280;11027;51.030;13.812;2024-02-16T05:08:52;100183.69;;;9.91;84.65
21730;BME280;11027;51.030;13.812;2024-02-16T05:11:17;100186.41;;;9.91;84.34
21730;BME280;11027;51.030;13.812;2024-02-16T05:13:43;100192.53;;;9.93;84.32
21730;BME280;11027;51.030;13.812;2024-02-16T05:16:09;100191.31;;;9.95;84.35
21730;BME280;11027;51.030;13.812;2024-02-16T05:18:36;100195.91;;;9.95;84.07
21730;BME280;11027;51.030;13.812;2024-02-16T05:21:01;100195.91;;;9.95;84.13
21730;BME280;11027;51.030;13.812;2024-02-16T05:23:26;100204.25;;;9.93;83.89
21730;BME280;11027;51.030;13.812;2024-02-16T05:25:51;100196.94;;;9.94;84.16
21730;BME280;11027;51.030;13.812;2024-02-16T05:28:19;100192.53;;;9.93;83.70
21730;BME280;11027;51.030;13.812;2024-02-16T05:30:44;100192.53;;;9.93;83.55
21730;BME280;11027;51.030;13.812;2024-02-16T05:33:10;100187.06;;;9.93;83.57
21730;BME280;11027;51.030;13.812;2024-02-16T05:35:35;100191.19;;;9.89;83.62
21730;BME280;11027;51.030;13.812;2024-02-16T05:38:04;100188.28;;;9.90;83.48
21730;BME280;11027;51.030;13.812;2024-02-16T05:40:35;100190.16;;;9.90;83.37
21730;BME280;11027;51.030;13.812;2024-02-16T05:43:18;100187.78;;;9.87;83.37
21730;BME280;11027;51.030;13.812;2024-02-16T05:45:43;100189.50;;;9.88;82.90
21730;BME280;11027;51.030;13.812;2024-02-16T05:48:08;100186.94;;;9.86;82.84
21730;BME280;11027;51.030;13.812;2024-02-16T05:50:35;100189.66;;;9.86;82.72
21730;BME280;11027;51.030;13.812;2024-02-16T05:53:00;100180.66;;;9.86;82.86
21730;BME280;11027;51.030;13.812;2024-02-16T05:55:26;100180.81;;;9.84;82.78
21730;BME280;11027;51.030;13.812;2024-02-16T05:57:51;100178.44;;;9.81;82.71
21730;BME280;11027;51.030;13.812;2024-02-16T06:00:16;100178.44;;;9.81;82.53
21730;BME280;11027;51.030;13.812;2024-02-16T06:02:42;100177.59;;;9.80;82.72
21730;BME280;11027;51.030;13.812;2024-02-16T06:05:07;100181.31;;;9.79;82.55
21730;BME280;11027;51.030;13.812;2024-02-16T06:07:32;100178.81;;;9.78;82.54
21730;BME280;11027;51.030;13.812;2024-02-16T06:09:58;100177.94;;;9.77;82.31
21730;BME280;11027;51.030;13.812;2024-02-16T06:12:23;100169.78;;;9.77;82.12
21730;BME280;11027;51.030;13.812;2024-02-16T06:14:49;100175.41;;;9.76;82.06
21730;BME280;11027;51.030;13.812;2024-02-16T06:17:14;100171.34;;;9.72;81.90
21730;BME280;11027;51.030;13.812;2024-02-16T06:19:41;100168.13;;;9.68;82.16
21730;BME280;11027;51.030;13.812;2024-02-16T06:22:06;100190.22;;;9.65;82.14
21730;BME280;11027;51.030;13.812;2024-02-16T06:24:33;100187.50;;;9.65;82.01
21730;BME280;11027;51.030;13.812;2024-02-16T06:26:58;100175.09;;;9.63;81.87
21730;BME280;11027;51.030;13.812;2024-02-16T06:29:26;100179.69;;;9.62;81.94
21730;BME280;11027;51.030;13.812;2024-02-16T06:31:51;100182.25;;;9.64;81.82
21730;BME280;11027;51.030;13.812;2024-02-16T06:34:17;100193.31;;;9.62;81.82
21730;BME280;11027;51.030;13.812;2024-02-16T06:36:43;100185.47;;;9.59;81.70
21730;BME280;11027;51.030;13.812;2024-02-16T06:39:08;100192.63;;;9.60;81.61
21730;BME280;11027;51.030;13.812;2024-02-16T06:41:36;100200.78;;;9.60;81.71
21730;BME280;11027;51.030;13.812;2024-02-16T06:44:03;100200.13;;;9.58;81.56
21730;BME280;11027;51.030;13.812;2024-02-16T06:46:29;100198.41;;;9.57;81.40
21730;BME280;11027;51.030;13.812;2024-02-16T06:48:55;100203.84;;;9.57;81.35
21730;BME280;11027;51.030;13.812;2024-02-16T06:51:24;100207.59;;;9.56;81.28
21730;BME280;11027;51.030;13.812;2024-02-16T06:53:51;100210.31;;;9.56;81.30
21730;BME280;11027;51.030;13.812;2024-02-16T06:56:17;100221.88;;;9.58;81.17
21730;BME280;11027;51.030;13.812;2024-02-16T06:58:43;100215.06;;;9.54;81.36
21730;BME280;11027;51.030;13.812;2024-02-16T07:01:08;100220.34;;;9.55;81.07
21730;BME280;11027;51.030;13.812;2024-02-16T07:03:34;100218.13;;;9.59;81.19
21730;BME280;11027;51.030;13.812;2024-02-16T07:06:02;100211.66;;;9.60;80.75
21730;BME280;11027;51.030;13.812;2024-02-16T07:08:27;100203.50;;;9.60;80.62
21730;BME280;11027;51.030;13.812;2024-02-16T07:10:52;100194.31;;;9.61;80.58
21730;BME280;11027;51.030;13.812;2024-02-16T07:13:18;100190.59;;;9.62;80.68
21730;BME280;11027;51.030;13.812;2024-02-16T07:15:43;100197.69;;;9.63;80.66
21730;BME280;11027;51.030;13.812;2024-02-16T07:18:08;100200.25;;;9.65;80.51
21730;BME280;11027;51.030;13.812;2024-02-16T07:20:35;100202.44;;;9.69;80.31
21730;BME280;11027;51.030;13.812;2024-02-16T07:23:01;100208.41;;;9.73;80.49
21730;BME280;11027;51.030;13.812;2024-02-16T07:25:26;100202.63;;;9.76;79.98
21730;BME280;11027;51.030;13.812;2024-02-16T07:27:52;100210.25;;;9.80;80.19
21730;BME280;11027;51.030;13.812;2024-02-16T07:30:18;100209.88;;;9.84;79.86
21730;BME280;11027;51.030;13.812;2024-02-16T07:32:48;100205.81;;;9.88;80.00
21730;BME280;11027;51.030;13.812;2024-02-16T07:35:14;100201.34;;;9.95;79.53
21730;BME280;11027;51.030;13.812;2024-02-16T07:37:39;100196.91;;;10.02;79.15
21730;BME280;11027;51.030;13.812;2024-02-16T07:40:05;100192.44;;;10.09;79.15
21730;BME280;11027;51.030;13.812;2024-02-16T07:42:34;100182.56;;;10.16;78.83
21730;BME280;11027;51.030;13.812;2024-02-16T07:44:59;100181.84;;;10.23;78.26
21730;BME280;11027;51.030;13.812;2024-02-16T07:47:24;100176.91;;;10.26;78.13
21730;BME280;11027;51.030;13.812;2024-02-16T07:49:50;100182.50;;;10.33;78.03
21730;BME280;11027;51.030;13.812;2024-02-16T07:52:15;100189.28;;;10.37;77.68
21730;BME280;11027;51.030;13.812;2024-02-16T07:54:40;100186.50;;;10.45;77.73
21730;BME280;11027;51.030;13.812;2024-02-16T07:57:06;100187.69;;;10.51;77.05
21730;BME280;11027;51.030;13.812;2024-02-16T07:59:31;100187.63;;;10.59;76.86
21730;BME280;11027;51.030;13.812;2024-02-16T08:01:56;100194.91;;;10.67;76.83
21730;BME280;11027;51.030;13.812;2024-02-16T08:04:21;100198.41;;;10.75;76.60
21730;BME280;11027;51.030;13.812;2024-02-16T08:06:47;100196.13;;;10.87;76.71
21730;BME280;11027;51.030;13.812;2024-02-16T08:09:12;100193.16;;;10.97;76.29
21730;BME280;11027;51.030;13.812;2024-02-16T08:11:37;100190.53;;;11.04;75.99
21730;BME280;11027;51.030;13.812;2024-02-16T08:14:02;100189.78;;;11.10;75.60
21730;BME280;11027;51.030;13.812;2024-02-16T08:16:28;100181.91;;;11.15;75.07
21730;BME280;11027;51.030;13.812;2024-02-16T08:18:53;100196.88;;;11.19;75.04
21730;BME280;11027;51.030;13.812;2024-02-16T08:21:18;100196.88;;;11.19;75.00
21730;BME280;11027;51.030;13.812;2024-02-16T08:23:44;100197.16;;;11.24;75.05
21730;BME280;11027;51.030;13.812;2024-02-16T08:26:09;100203.94;;;11.28;74.77
21730;BME280;11027;51.030;13.812;2024-02-16T08:28:34;100203.59;;;11.31;74.53
21730;BME280;11027;51.030;13.812;2024-02-16T08:31:00;100198.13;;;11.31;74.11
21730;BME280;11027;51.030;13.812;2024-02-16T08:33:25;100203.38;;;11.33;74.37
21730;BME280;11027;51.030;13.812;2024-02-16T08:35:50;100195.69;;;11.36;74.37
21730;BME280;11027;51.030;13.812;2024-02-16T08:38:15;100199.91;;;11.39;73.77
21730;BME280;11027;51.030;13.812;2024-02-16T08:40:41;100191.56;;;11.40;73.56
21730;BME280;11027;51.030;13.812;2024-02-16T08:43:06;100194.09;;;11.42;73.32
21730;BME280;11027;51.030;13.812;2024-02-16T08:45:34;100187.81;;;11.41;73.51
21730;BME280;11027;51.030;13.812;2024-02-16T08:47:59;100184.03;;;11.43;73.21
21730;BME280;11027;51.030;13.812;2024-02-16T08:50:27;100181.97;;;11.45;73.00
21730;BME280;11027;51.030;13.812;2024-02-16T08:52:52;100186.00;;;11.49;73.49
21730;BME280;11027;51.030;13.812;2024-02-16T08:55:18;100177.66;;;11.50;73.28
21730;BME280;11027;51.030;13.812;2024-02-16T08:57:43;100182.53;;;11.55;73.00
21730;BME280;11027;51.030;13.812;2024-02-16T09:00:09;100196.97;;;11.64;72.71
21730;BME280;11027;51.030;13.812;2024-02-16T09:02:35;100194.16;;;11.72;72.56
21730;BME280;11027;51.030;13.812;2024-02-16T09:05:00;100183.31;;;11.78;72.14
21730;BME280;11027;51.030;13.812;2024-02-16T09:07:25;100183.63;;;11.84;71.76
21730;BME280;11027;51.030;13.812;2024-02-16T09:09:51;100185.75;;;11.88;71.26
21730;BME280;11027;51.030;13.812;2024-02-16T09:12:16;100187.13;;;11.92;71.44
21730;BME280;11027;51.030;13.812;2024-02-16T09:14:42;100178.53;;;11.95;70.81
21730;BME280;11027;51.030;13.812;2024-02-16T09:17:07;100172.13;;;12.03;70.75
21730;BME280;11027;51.030;13.812;2024-02-16T09:19:32;100183.78;;;12.12;70.86
21730;BME280;11027;51.030;13.812;2024-02-16T09:21:57;100189.53;;;12.17;70.37
21730;BME280;11027;51.030;13.812;2024-02-16T09:24:26;100175.28;;;12.21;70.38
21730;BME280;11027;51.030;13.812;2024-02-16T09:26:54;100190.25;;;12.26;70.26
21730;BME280;11027;51.030;13.812;2024-02-16T09:29:19;100197.69;;;12.32;69.91
21730;BME280;11027;51.030;13.812;2024-02-16T09:31:48;100190.63;;;12.37;69.74
21730;BME280;11027;51.030;13.812;2024-02-16T09:34:14;100200.97;;;12.42;69.46
21730;BME280;11027;51.030;13.812;2024-02-16T09:36:39;100207.75;;;12.46;69.36
21730;BME280;11027;51.030;13.812;2024-02-16T09:39:04;100205.28;;;12.51;69.21
21730;BME280;11027;51.030;13.812;2024-02-16T09:41:34;100202.84;;;12.56;68.70
21730;BME280;11027;51.030;13.812;2024-02-16T09:43:59;100200.00;;;12.65;69.09
21730;BME280;11027;51.030;13.812;2024-02-16T09:46:26;100217.22;;;12.65;68.26
21730;BME280;11027;51.030;13.812;2024-02-16T09:48:52;100218.06;;;12.66;68.38
21730;BME280;11027;51.030;13.812;2024-02-16T09:51:19;100216.38;;;12.65;67.82
21730;BME280;11027;51.030;13.812;2024-02-16T09:53:50;100223.94;;;12.63;67.59
21730;BME280;11027;51.030;13.812;2024-02-16T09:56:17;100221.38;;;12.61;67.94
21730;BME280;11027;51.030;13.812;2024-02-16T09:58:42;100228.53;;;12.62;67.97
21730;BME280;11027;51.030;13.812;2024-02-16T10:01:17;100231.53;;;12.67;67.63
21730;BME280;11027;51.030;13.812;2024-02-16T10:03:43;100222.94;;;12.70;67.32
21730;BME280;11027;51.030;13.812;2024-02-16T10:06:12;100227.84;;;12.75;67.13
21730;BME280;11027;51.030;13.812;2024-02-16T10:08:50;100227.06;;;12.81;67.01
21730;BME280;11027;51.030;13.812;2024-02-16T10:11:17;100226.31;;;12.87;66.78
21730;BME280;11027;51.030;13.812;2024-02-16T10:13:53;100231.38;;;12.90;66.76
21730;BME280;11027;51.030;13.812;2024-02-16T10:16:19;100228.50;;;12.98;67.08
21730;BME280;11027;51.030;13.812;2024-02-16T10:18:44;100219.72;;;13.03;66.42
21730;BME280;11027;51.030;13.812;2024-02-16T10:21:09;100224.16;;;13.04;66.68
21730;BME280;11027;51.030;13.812;2024-02-16T10:23:35;100217.44;;;13.07;65.96
21730;BME280;11027;51.030;13.812;2024-02-16T10:26:00;100222.66;;;13.01;65.70
21730;BME280;11027;51.030;13.812;2024-02-16T10:28:28;100223.69;;;13.00;65.80
21730;BME280;11027;51.030;13.812;2024-02-16T10:30:58;100222.66;;;13.01;65.84
21730;BME280;11027;51.030;13.812;2024-02-16T10:33:27;100214.25;;;13.03;66.06
21730;BME280;11027;51.030;13.812;2024-02-16T10:35:55;100208.56;;;13.05;65.82
21730;BME280;11027;51.030;13.812;2024-02-16T10:38:21;100205.84;;;13.05;65.87
21730;BME280;11027;51.030;13.812;2024-02-16T10:40:48;100202.31;;;13.11;66.19
21730;BME280;11027;51.030;13.812;2024-02-16T10:43:16;100195.03;;;13.18;65.88
21730;BME280;11027;51.030;13.812;2024-02-16T10:45:42;100198.41;;;13.20;65.60
21730;BME280;11027;51.030;13.812;2024-02-16T10:48:08;100194.25;;;13.24;64.80
21730;BME280;11027;51.030;13.812;2024-02-16T10:50:35;100191.81;;;13.29;64.92
21730;BME280;11027;51.030;13.812;2024-02-16T10:53:09;100200.28;;;13.41;64.76
21730;BME280;11027;51.030;13.812;2024-02-16T10:55:36;100194.91;;;13.48;64.50
21730;BME280;11027;51.030;13.812;2024-02-16T10:58:02;100197.47;;;13.56;64.41
21730;BME280;11027;51.030;13.812;2024-02-16T11:00:27;100197.72;;;13.61;64.02
21730;BME280;11027;51.030;13.812;2024-02-16T11:02:56;100190.78;;;13.65;63.63
21730;BME280;11027;51.030;13.812;2024-02-16T11:08:11;100185.03;;;13.82;63.19
21730;BME280;11027;51.030;13.812;2024-02-16T11:10:38;100191.38;;;13.89;63.37
21730;BME280;11027;51.030;13.812;2024-02-16T11:13:03;100185.50;;;13.92;63.19
21730;BME280;11027;51.030;13.812;2024-02-16T11:15:34;100183.41;;;13.94;63.17
21730;BME280;11027;51.030;13.812;2024-02-16T11:18:00;100179.63;;;14.01;63.13
21730;BME280;11027;51.030;13.812;2024-02-16T11:20:26;100186.44;;;14.12;63.10
21730;BME280;11027;51.030;13.812;2024-02-16T11:22:52;100187.72;;;14.16;63.07
21730;BME280;11027;51.030;13.812;2024-02-16T11:25:18;100198.25;;;14.19;62.96
21730;BME280;11027;51.030;13.812;2024-02-16T11:27:44;100205.84;;;14.17;62.62
21730;BME280;11027;51.030;13.812;2024-02-16T11:30:10;100191.50;;;14.15;62.41
21730;BME280;11027;51.030;13.812;2024-02-16T11:32:36;100205.44;;;14.14;62.21
21730;BME280;11027;51.030;13.812;2024-02-16T11:35:08;100202.44;;;14.09;62.03
21730;BME280;11027;51.030;13.812;2024-02-16T11:37:34;100198.22;;;14.06;61.91
21730;BME280;11027;51.030;13.812;2024-02-16T11:39:59;100194.19;;;14.02;61.90
21730;BME280;11027;51.030;13.812;2024-02-16T11:42:24;100187.22;;;13.99;62.35
21730;BME280;11027;51.030;13.812;2024-02-16T11:44:54;100179.41;;;13.96;62.50
21730;BME280;11027;51.030;13.812;2024-02-16T11:47:24;100169.72;;;13.94;62.36
21730;BME280;11027;51.030;13.812;2024-02-16T11:50:00;100158.13;;;13.92;62.58
21730;BME280;11027;51.030;13.812;2024-02-16T11:52:26;100159.78;;;13.93;62.44
21730;BME280;11027;51.030;13.812;2024-02-16T11:54:51;100156.84;;;13.94;62.52
21730;BME280;11027;51.030;13.812;2024-02-16T11:57:16;100168.66;;;13.95;62.60
21730;BME280;11027;51.030;13.812;2024-02-16T11:59:41;100168.66;;;13.95;62.42
21730;BME280;11027;51.030;13.812;2024-02-16T12:02:17;100170.34;;;13.96;62.27
21730;BME280;11027;51.030;13.812;2024-02-16T12:04:43;100168.47;;;13.96;62.22
21730;BME280;11027;51.030;13.812;2024-02-16T12:07:12;100164.06;;;14.02;62.39
21730;BME280;11027;51.030;13.812;2024-02-16T12:09:39;100157.34;;;14.11;62.06
21730;BME280;11027;51.030;13.812;2024-02-16T12:12:04;100166.22;;;14.13;61.47
21730;BME280;11027;51.030;13.812;2024-02-16T12:14:31;100166.22;;;14.13;61.21
21730;BME280;11027;51.030;13.812;2024-02-16T12:16:57;100156.53;;;14.17;61.01
21730;BME280;11027;51.030;13.812;2024-02-16T12:19:23;100159.53;;;14.29;61.02
21730;BME280;11027;51.030;13.812;2024-02-16T12:21:50;100151.56;;;14.48;60.89
21730;BME280;11027;51.030;13.812;2024-02-16T12:24:16;100146.59;;;14.65;60.81
21730;BME280;11027;51.030;13.812;2024-02-16T12:26:41;100159.69;;;14.76;60.26
21730;BME280;11027;51.030;13.812;2024-02-16T12:29:07;100168.78;;;14.83;60.16
21730;BME280;11027;51.030;13.812;2024-02-16T12:31:33;100173.44;;;14.89;59.83
21730;BME280;11027;51.030;13.812;2024-02-16T12:34:02;100173.63;;;14.94;59.39
21730;BME280;11027;51.030;13.812;2024-02-16T12:36:29;100189.28;;;15.14;59.71
21730;BME280;11027;51.030;13.812;2024-02-16T12:38:54;100185.06;;;15.31;59.27